sensor_id;sensor_type;location;lat;lon;timestamp;P1;durP1;ratioP1;P2;durP2;ratioP2
71562;SDS011;59391;52.504;13.438;2023-05-14T00:01:51;14.67;;;10.17;;
71562;SDS011;59391;52.504;13.438;2023-05-14T00:04:17;16.53;;;10.87;;
71562;SDS011;59391;52.504;13.438;2023-05-14T00:06:43;13.95;;;9.90;;
71562;SDS011;59391;52.504;13.438;2023-05-14T00:09:10;14.73;;;10.35;;
71562;SDS011;59391;52.504;13.438;2023-05-14T00:11:36;18.85;;;11.43;;
71562;SDS011;59391;52.504;13.438;2023-05-14T00:14:01;15.18;;;10.70;;
71562;SDS011;59391;52.504;13.438;2023-05-14T00:16:27;15.27;;;10.43;;
71562;SDS011;59391;52.504;13.438;2023-05-14T00:18:53;16.42;;;10.27;;
71562;SDS011;59391;52.504;13.438;2023-05-14T00:21:18;16.67;;;10.50;;
71562;SDS011;59391;52.504;13.438;2023-05-14T00:23:44;17.48;;;10.38;;
71562;SDS011;59391;52.504;13.438;2023-05-14T00:26:10;15.90;;;11.27;;
71562;SDS011;59391;52.504;13.438;2023-05-14T00:28:35;15.47;;;10.20;;
71562;SDS011;59391;52.504;13.438;2023-05-14T00:31:01;14.80;;;10.05;;
71562;SDS011;59391;52.504;13.438;2023-05-14T00:33:26;14.33;;;9.70;;
71562;SDS011;59391;52.504;13.438;2023-05-14T00:35:52;15.27;;;10.60;;
71562;SDS011;59391;52.504;13.438;2023-05-14T00:38:18;20.87;;;10.13;;
71562;SDS011;59391;52.504;13.438;2023-05-14T00:40:44;17.37;;;9.87;;
71562;SDS011;59391;52.504;13.438;2023-05-14T00:43:15;16.23;;;10.52;;
71562;SDS011;59391;52.504;13.438;2023-05-14T00:45:43;17.48;;;10.13;;
71562;SDS011;59391;52.504;13.438;2023-05-14T00:48:10;13.40;;;9.68;;
71562;SDS011;59391;52.504;13.438;2023-05-14T00:50:36;12.70;;;8.88;;
71562;SDS011;59391;52.504;13.438;2023-05-14T00:53:02;14.80;;;9.13;;
71562;SDS011;59391;52.504;13.438;2023-05-14T00:55:34;12.57;;;8.43;;
71562;SDS011;59391;52.504;13.438;2023-05-14T00:58:02;11.73;;;8.75;;
71562;SDS011;59391;52.504;13.438;2023-05-14T01:00:33;11.10;;;8.35;;
71562;SDS011;59391;52.504;13.438;2023-05-14T01:02:59;12.98;;;8.20;;
71562;SDS011;59391;52.504;13.438;2023-05-14T01:05:26;16.43;;;9.33;;
71562;SDS011;59391;52.504;13.438;2023-05-14T01:08:07;16.98;;;8.77;;
71562;SDS011;59391;52.504;13.438;2023-05-14T01:10:50;13.90;;;9.10;;
71562;SDS011;59391;52.504;13.438;2023-05-14T01:13:33;14.60;;;9.20;;
71562;SDS011;59391;52.504;13.438;2023-05-14T01:16:11;19.95;;;10.65;;
71562;SDS011;59391;52.504;13.438;2023-05-14T01:18:42;11.70;;;8.40;;
71562;SDS011;59391;52.504;13.438;2023-05-14T01:24:11;14.13;;;8.93;;
71562;SDS011;59391;52.504;13.438;2023-05-14T01:26:37;17.27;;;10.43;;
71562;SDS011;59391;52.504;13.438;2023-05-14T01:29:04;11.70;;;8.40;;
71562;SDS011;59391;52.504;13.438;2023-05-14T01:31:43;13.27;;;9.07;;
71562;SDS011;59391;52.504;13.438;2023-05-14T01:34:13;12.53;;;8.10;;
71562;SDS011;59391;52.504;13.438;2023-05-14T01:36:40;16.17;;;9.20;;
71562;SDS011;59391;52.504;13.438;2023-05-14T01:39:07;17.70;;;9.65;;
71562;SDS011;59391;52.504;13.438;2023-05-14T01:41:34;13.20;;;8.50;;
71562;SDS011;59391;52.504;13.438;2023-05-14T01:44:03;18.52;;;9.48;;
71562;SDS011;59391;52.504;13.438;2023-05-14T01:46:32;17.07;;;10.33;;
71562;SDS011;59391;52.504;13.438;2023-05-14T01:48:58;17.10;;;8.93;;
71562;SDS011;59391;52.504;13.438;2023-05-14T01:51:25;12.68;;;8.02;;
71562;SDS011;59391;52.504;13.438;2023-05-14T01:53:51;18.10;;;8.70;;
71562;SDS011;59391;52.504;13.438;2023-05-14T01:56:20;12.93;;;8.63;;
71562;SDS011;59391;52.504;13.438;2023-05-14T01:58:47;13.52;;;8.75;;
71562;SDS011;59391;52.504;13.438;2023-05-14T02:01:13;18.13;;;9.52;;
71562;SDS011;59391;52.504;13.438;2023-05-14T02:03:39;13.98;;;8.73;;
71562;SDS011;59391;52.504;13.438;2023-05-14T02:06:05;14.55;;;8.57;;
71562;SDS011;59391;52.504;13.438;2023-05-14T02:08:31;15.32;;;9.43;;
71562;SDS011;59391;52.504;13.438;2023-05-14T02:10:56;14.63;;;8.98;;
71562;SDS011;59391;52.504;13.438;2023-05-14T02:13:24;12.57;;;8.33;;
71562;SDS011;59391;52.504;13.438;2023-05-14T02:15:50;14.20;;;9.52;;
71562;SDS011;59391;52.504;13.438;2023-05-14T02:18:15;15.32;;;9.98;;
71562;SDS011;59391;52.504;13.438;2023-05-14T02:20:41;15.82;;;9.82;;
71562;SDS011;59391;52.504;13.438;2023-05-14T02:23:07;16.73;;;10.57;;
71562;SDS011;59391;52.504;13.438;2023-05-14T02:25:32;15.50;;;9.68;;
71562;SDS011;59391;52.504;13.438;2023-05-14T02:27:59;18.95;;;9.75;;
71562;SDS011;59391;52.504;13.438;2023-05-14T02:30:24;12.30;;;8.20;;
71562;SDS011;59391;52.504;13.438;2023-05-14T02:32:50;15.93;;;9.50;;
71562;SDS011;59391;52.504;13.438;2023-05-14T02:35:16;16.00;;;8.40;;
71562;SDS011;59391;52.504;13.438;2023-05-14T02:37:41;12.43;;;9.07;;
71562;SDS011;59391;52.504;13.438;2023-05-14T02:40:07;13.13;;;8.95;;
71562;SDS011;59391;52.504;13.438;2023-05-14T02:42:33;16.17;;;8.60;;
71562;SDS011;59391;52.504;13.438;2023-05-14T02:44:59;13.95;;;8.35;;
71562;SDS011;59391;52.504;13.438;2023-05-14T02:47:25;14.57;;;9.50;;
71562;SDS011;59391;52.504;13.438;2023-05-14T02:49:50;14.17;;;8.47;;
71562;SDS011;59391;52.504;13.438;2023-05-14T02:52:16;15.77;;;9.65;;
71562;SDS011;59391;52.504;13.438;2023-05-14T02:54:41;17.60;;;10.50;;
71562;SDS011;59391;52.504;13.438;2023-05-14T02:57:07;11.97;;;8.77;;
71562;SDS011;59391;52.504;13.438;2023-05-14T02:59:33;12.57;;;8.45;;
71562;SDS011;59391;52.504;13.438;2023-05-14T03:01:58;18.20;;;9.50;;
71562;SDS011;59391;52.504;13.438;2023-05-14T03:04:24;13.48;;;8.20;;
71562;SDS011;59391;52.504;13.438;2023-05-14T03:06:49;13.90;;;8.87;;
71562;SDS011;59391;52.504;13.438;2023-05-14T03:09:15;15.60;;;10.03;;
71562;SDS011;59391;52.504;13.438;2023-05-14T03:11:41;16.73;;;8.65;;
71562;SDS011;59391;52.504;13.438;2023-05-14T03:14:06;12.53;;;8.43;;
71562;SDS011;59391;52.504;13.438;2023-05-14T03:16:32;13.35;;;7.68;;
71562;SDS011;59391;52.504;13.438;2023-05-14T03:18:57;12.23;;;8.07;;
71562;SDS011;59391;52.504;13.438;2023-05-14T03:21:23;14.57;;;7.53;;
71562;SDS011;59391;52.504;13.438;2023-05-14T03:23:49;11.23;;;7.85;;
71562;SDS011;59391;52.504;13.438;2023-05-14T03:26:16;11.85;;;7.60;;
71562;SDS011;59391;52.504;13.438;2023-05-14T03:28:42;12.30;;;7.63;;
71562;SDS011;59391;52.504;13.438;2023-05-14T03:31:08;11.57;;;7.78;;
71562;SDS011;59391;52.504;13.438;2023-05-14T03:33:34;12.23;;;7.50;;
71562;SDS011;59391;52.504;13.438;2023-05-14T03:36:00;9.75;;;7.22;;
71562;SDS011;59391;52.504;13.438;2023-05-14T03:38:25;10.68;;;7.60;;
71562;SDS011;59391;52.504;13.438;2023-05-14T03:40:51;14.67;;;7.60;;
71562;SDS011;59391;52.504;13.438;2023-05-14T03:43:16;13.13;;;7.70;;
71562;SDS011;59391;52.504;13.438;2023-05-14T03:45:42;12.77;;;7.68;;
71562;SDS011;59391;52.504;13.438;2023-05-14T03:48:08;13.80;;;8.00;;
71562;SDS011;59391;52.504;13.438;2023-05-14T03:50:33;14.30;;;8.15;;
71562;SDS011;59391;52.504;13.438;2023-05-14T03:52:59;10.70;;;7.80;;
71562;SDS011;59391;52.504;13.438;2023-05-14T03:55:25;11.05;;;7.82;;
71562;SDS011;59391;52.504;13.438;2023-05-14T03:57:50;12.27;;;7.67;;
71562;SDS011;59391;52.504;13.438;2023-05-14T04:00:16;11.82;;;7.93;;
71562;SDS011;59391;52.504;13.438;2023-05-14T04:02:42;13.30;;;7.65;;
71562;SDS011;59391;52.504;13.438;2023-05-14T04:05:08;12.00;;;7.80;;
71562;SDS011;59391;52.504;13.438;2023-05-14T04:07:33;11.93;;;7.57;;
71562;SDS011;59391;52.504;13.438;2023-05-14T04:09:59;12.25;;;8.00;;
71562;SDS011;59391;52.504;13.438;2023-05-14T04:12:26;11.57;;;7.67;;
71562;SDS011;59391;52.504;13.438;2023-05-14T04:14:52;13.02;;;8.32;;
71562;SDS011;59391;52.504;13.438;2023-05-14T04:17:17;12.47;;;8.00;;
71562;SDS011;59391;52.504;13.438;2023-05-14T04:19:43;13.25;;;8.13;;
71562;SDS011;59391;52.504;13.438;2023-05-14T04:22:09;13.93;;;8.03;;
71562;SDS011;59391;52.504;13.438;2023-05-14T04:24:34;10.23;;;7.67;;
71562;SDS011;59391;52.504;13.438;2023-05-14T04:27:00;11.38;;;7.85;;
71562;SDS011;59391;52.504;13.438;2023-05-14T04:29:25;11.97;;;8.07;;
71562;SDS011;59391;52.504;13.438;2023-05-14T04:31:51;11.80;;;7.85;;
71562;SDS011;59391;52.504;13.438;2023-05-14T04:34:17;9.87;;;7.43;;
71562;SDS011;59391;52.504;13.438;2023-05-14T04:36:43;12.95;;;8.10;;
71562;SDS011;59391;52.504;13.438;2023-05-14T04:39:08;14.67;;;8.07;;
71562;SDS011;59391;52.504;13.438;2023-05-14T04:41:37;11.45;;;8.30;;
71562;SDS011;59391;52.504;13.438;2023-05-14T04:44:02;10.90;;;7.72;;
71562;SDS011;59391;52.504;13.438;2023-05-14T04:46:28;12.67;;;8.53;;
71562;SDS011;59391;52.504;13.438;2023-05-14T04:48:54;12.68;;;8.15;;
71562;SDS011;59391;52.504;13.438;2023-05-14T04:51:20;12.95;;;8.75;;
71562;SDS011;59391;52.504;13.438;2023-05-14T04:53:46;15.07;;;8.40;;
71562;SDS011;59391;52.504;13.438;2023-05-14T04:56:12;11.77;;;8.75;;
71562;SDS011;59391;52.504;13.438;2023-05-14T04:58:38;14.40;;;8.20;;
71562;SDS011;59391;52.504;13.438;2023-05-14T05:01:04;12.83;;;8.20;;
71562;SDS011;59391;52.504;13.438;2023-05-14T05:03:30;12.02;;;7.78;;
71562;SDS011;59391;52.504;13.438;2023-05-14T05:05:56;12.68;;;7.90;;
71562;SDS011;59391;52.504;13.438;2023-05-14T05:08:21;11.50;;;7.60;;
71562;SDS011;59391;52.504;13.438;2023-05-14T05:10:47;12.43;;;8.02;;
71562;SDS011;59391;52.504;13.438;2023-05-14T05:13:13;11.77;;;7.70;;
71562;SDS011;59391;52.504;13.438;2023-05-14T05:15:40;11.27;;;7.95;;
71562;SDS011;59391;52.504;13.438;2023-05-14T05:18:07;11.98;;;7.70;;
71562;SDS011;59391;52.504;13.438;2023-05-14T05:20:32;9.87;;;7.37;;
71562;SDS011;59391;52.504;13.438;2023-05-14T05:22:58;11.40;;;7.88;;
71562;SDS011;59391;52.504;13.438;2023-05-14T05:25:24;12.70;;;7.93;;
71562;SDS011;59391;52.504;13.438;2023-05-14T05:27:49;10.65;;;7.88;;
71562;SDS011;59391;52.504;13.438;2023-05-14T05:30:15;11.90;;;7.83;;
71562;SDS011;59391;52.504;13.438;2023-05-14T05:32:40;11.57;;;7.73;;
71562;SDS011;59391;52.504;13.438;2023-05-14T05:35:06;12.25;;;7.97;;
71562;SDS011;59391;52.504;13.438;2023-05-14T05:37:32;12.40;;;8.32;;
71562;SDS011;59391;52.504;13.438;2023-05-14T05:39:58;11.88;;;7.88;;
71562;SDS011;59391;52.504;13.438;2023-05-14T05:42:23;12.40;;;8.63;;
71562;SDS011;59391;52.504;13.438;2023-05-14T05:44:50;13.15;;;8.10;;
71562;SDS011;59391;52.504;13.438;2023-05-14T05:47:15;12.52;;;7.88;;
71562;SDS011;59391;52.504;13.438;2023-05-14T05:49:41;11.97;;;7.60;;
71562;SDS011;59391;52.504;13.438;2023-05-14T05:52:06;11.60;;;8.17;;
71562;SDS011;59391;52.504;13.438;2023-05-14T05:54:32;11.60;;;8.05;;
71562;SDS011;59391;52.504;13.438;2023-05-14T05:56:58;12.47;;;8.57;;
71562;SDS011;59391;52.504;13.438;2023-05-14T05:59:24;11.37;;;7.67;;
71562;SDS011;59391;52.504;13.438;2023-05-14T06:01:50;12.07;;;8.50;;
71562;SDS011;59391;52.504;13.438;2023-05-14T06:04:16;11.00;;;8.02;;
71562;SDS011;59391;52.504;13.438;2023-05-14T06:06:41;12.53;;;7.87;;
71562;SDS011;59391;52.504;13.438;2023-05-14T06:09:07;13.60;;;7.50;;
71562;SDS011;59391;52.504;13.438;2023-05-14T06:11:33;12.85;;;8.25;;
71562;SDS011;59391;52.504;13.438;2023-05-14T06:14:00;12.23;;;7.82;;
71562;SDS011;59391;52.504;13.438;2023-05-14T06:16:25;11.70;;;8.50;;
71562;SDS011;59391;52.504;13.438;2023-05-14T06:18:51;13.63;;;7.40;;
71562;SDS011;59391;52.504;13.438;2023-05-14T06:21:18;13.13;;;8.15;;
71562;SDS011;59391;52.504;13.438;2023-05-14T06:23:44;15.33;;;8.43;;
71562;SDS011;59391;52.504;13.438;2023-05-14T06:26:09;11.70;;;7.78;;
71562;SDS011;59391;52.504;13.438;2023-05-14T06:28:35;10.47;;;8.13;;
71562;SDS011;59391;52.504;13.438;2023-05-14T06:31:00;12.63;;;8.18;;
71562;SDS011;59391;52.504;13.438;2023-05-14T06:33:26;12.97;;;8.00;;
71562;SDS011;59391;52.504;13.438;2023-05-14T06:35:58;13.48;;;7.95;;
71562;SDS011;59391;52.504;13.438;2023-05-14T06:38:26;12.40;;;7.90;;
71562;SDS011;59391;52.504;13.438;2023-05-14T06:40:52;11.80;;;7.30;;
71562;SDS011;59391;52.504;13.438;2023-05-14T06:43:17;10.73;;;7.33;;
71562;SDS011;59391;52.504;13.438;2023-05-14T06:45:43;11.77;;;7.57;;
71562;SDS011;59391;52.504;13.438;2023-05-14T06:48:12;9.75;;;7.18;;
71562;SDS011;59391;52.504;13.438;2023-05-14T06:50:38;12.33;;;7.53;;
71562;SDS011;59391;52.504;13.438;2023-05-14T06:53:04;11.75;;;7.60;;
71562;SDS011;59391;52.504;13.438;2023-05-14T06:55:29;11.27;;;7.10;;
71562;SDS011;59391;52.504;13.438;2023-05-14T06:57:55;11.27;;;7.50;;
71562;SDS011;59391;52.504;13.438;2023-05-14T07:00:21;9.47;;;7.30;;
71562;SDS011;59391;52.504;13.438;2023-05-14T07:02:46;11.27;;;7.40;;
71562;SDS011;59391;52.504;13.438;2023-05-14T07:05:12;12.57;;;7.30;;
71562;SDS011;59391;52.504;13.438;2023-05-14T07:07:38;12.00;;;7.03;;
71562;SDS011;59391;52.504;13.438;2023-05-14T07:10:04;13.70;;;7.10;;
71562;SDS011;59391;52.504;13.438;2023-05-14T07:12:30;14.20;;;7.07;;
71562;SDS011;59391;52.504;13.438;2023-05-14T07:14:56;10.97;;;7.23;;
71562;SDS011;59391;52.504;13.438;2023-05-14T07:17:21;11.35;;;7.22;;
71562;SDS011;59391;52.504;13.438;2023-05-14T07:19:48;10.90;;;7.00;;
71562;SDS011;59391;52.504;13.438;2023-05-14T07:22:13;9.35;;;7.30;;
71562;SDS011;59391;52.504;13.438;2023-05-14T07:24:39;12.57;;;7.10;;
71562;SDS011;59391;52.504;13.438;2023-05-14T07:27:05;11.93;;;7.25;;
71562;SDS011;59391;52.504;13.438;2023-05-14T07:29:30;9.70;;;6.63;;
71562;SDS011;59391;52.504;13.438;2023-05-14T07:31:58;11.68;;;7.18;;
71562;SDS011;59391;52.504;13.438;2023-05-14T07:34:25;9.65;;;6.70;;
71562;SDS011;59391;52.504;13.438;2023-05-14T07:36:51;10.33;;;7.10;;
71562;SDS011;59391;52.504;13.438;2023-05-14T07:39:16;11.88;;;6.97;;
71562;SDS011;59391;52.504;13.438;2023-05-14T07:41:42;13.97;;;7.03;;
71562;SDS011;59391;52.504;13.438;2023-05-14T07:44:08;11.88;;;7.28;;
71562;SDS011;59391;52.504;13.438;2023-05-14T07:46:33;12.20;;;7.23;;
71562;SDS011;59391;52.504;13.438;2023-05-14T07:49:00;10.05;;;6.72;;
71562;SDS011;59391;52.504;13.438;2023-05-14T07:51:26;10.07;;;6.77;;
71562;SDS011;59391;52.504;13.438;2023-05-14T07:53:52;11.40;;;6.80;;
71562;SDS011;59391;52.504;13.438;2023-05-14T07:56:19;9.18;;;6.32;;
71562;SDS011;59391;52.504;13.438;2023-05-14T07:58:48;10.50;;;6.57;;
71562;SDS011;59391;52.504;13.438;2023-05-14T08:01:15;10.15;;;7.15;;
71562;SDS011;59391;52.504;13.438;2023-05-14T08:03:40;8.30;;;5.77;;
71562;SDS011;59391;52.504;13.438;2023-05-14T08:06:06;9.23;;;5.68;;
71562;SDS011;59391;52.504;13.438;2023-05-14T08:08:32;8.20;;;5.60;;
71562;SDS011;59391;52.504;13.438;2023-05-14T08:10:58;10.45;;;5.50;;
71562;SDS011;59391;52.504;13.438;2023-05-14T08:13:23;8.53;;;6.20;;
71562;SDS011;59391;52.504;13.438;2023-05-14T08:15:49;9.40;;;5.50;;
71562;SDS011;59391;52.504;13.438;2023-05-14T08:18:15;9.63;;;6.00;;
71562;SDS011;59391;52.504;13.438;2023-05-14T08:20:40;10.77;;;6.23;;
71562;SDS011;59391;52.504;13.438;2023-05-14T08:23:06;7.83;;;5.13;;
71562;SDS011;59391;52.504;13.438;2023-05-14T08:25:33;18.13;;;11.38;;
71562;SDS011;59391;52.504;13.438;2023-05-14T08:27:59;9.55;;;6.07;;
71562;SDS011;59391;52.504;13.438;2023-05-14T08:30:25;8.43;;;5.10;;
71562;SDS011;59391;52.504;13.438;2023-05-14T08:32:51;8.73;;;5.20;;
71562;SDS011;59391;52.504;13.438;2023-05-14T08:35:17;8.30;;;5.10;;
71562;SDS011;59391;52.504;13.438;2023-05-14T08:37:43;7.80;;;4.37;;
71562;SDS011;59391;52.504;13.438;2023-05-14T08:40:10;7.80;;;5.30;;
71562;SDS011;59391;52.504;13.438;2023-05-14T08:42:39;6.60;;;4.45;;
71562;SDS011;59391;52.504;13.438;2023-05-14T08:45:05;9.45;;;4.80;;
71562;SDS011;59391;52.504;13.438;2023-05-14T08:47:47;6.63;;;4.83;;
71562;SDS011;59391;52.504;13.438;2023-05-14T08:50:15;8.27;;;5.15;;
71562;SDS011;59391;52.504;13.438;2023-05-14T08:52:42;8.95;;;5.07;;
71562;SDS011;59391;52.504;13.438;2023-05-14T08:55:08;8.23;;;4.78;;
71562;SDS011;59391;52.504;13.438;2023-05-14T08:57:36;7.97;;;5.03;;
71562;SDS011;59391;52.504;13.438;2023-05-14T09:00:02;8.10;;;4.70;;
71562;SDS011;59391;52.504;13.438;2023-05-14T09:02:32;7.38;;;4.82;;
71562;SDS011;59391;52.504;13.438;2023-05-14T09:05:00;8.00;;;5.30;;
71562;SDS011;59391;52.504;13.438;2023-05-14T09:07:27;8.05;;;4.82;;
71562;SDS011;59391;52.504;13.438;2023-05-14T09:09:53;9.00;;;4.87;;
71562;SDS011;59391;52.504;13.438;2023-05-14T09:12:19;8.80;;;4.78;;
71562;SDS011;59391;52.504;13.438;2023-05-14T09:14:46;7.53;;;4.70;;
71562;SDS011;59391;52.504;13.438;2023-05-14T09:17:13;7.57;;;4.53;;
71562;SDS011;59391;52.504;13.438;2023-05-14T09:19:40;8.10;;;4.90;;
71562;SDS011;59391;52.504;13.438;2023-05-14T09:22:11;8.07;;;4.70;;
71562;SDS011;59391;52.504;13.438;2023-05-14T09:24:38;6.82;;;4.13;;
71562;SDS011;59391;52.504;13.438;2023-05-14T09:27:04;6.50;;;4.28;;
71562;SDS011;59391;52.504;13.438;2023-05-14T09:29:31;6.97;;;3.95;;
71562;SDS011;59391;52.504;13.438;2023-05-14T09:31:57;6.63;;;4.28;;
71562;SDS011;59391;52.504;13.438;2023-05-14T09:34:29;8.50;;;4.63;;
71562;SDS011;59391;52.504;13.438;2023-05-14T09:36:58;9.85;;;4.70;;
71562;SDS011;59391;52.504;13.438;2023-05-14T09:39:32;6.90;;;5.07;;
71562;SDS011;59391;52.504;13.438;2023-05-14T09:42:03;5.82;;;4.07;;
71562;SDS011;59391;52.504;13.438;2023-05-14T09:44:29;8.68;;;4.28;;
71562;SDS011;59391;52.504;13.438;2023-05-14T09:46:55;7.10;;;4.13;;
71562;SDS011;59391;52.504;13.438;2023-05-14T09:49:21;7.07;;;4.57;;
71562;SDS011;59391;52.504;13.438;2023-05-14T09:51:47;7.90;;;4.00;;
71562;SDS011;59391;52.504;13.438;2023-05-14T09:54:13;6.45;;;3.67;;
71562;SDS011;59391;52.504;13.438;2023-05-14T09:56:39;8.70;;;4.22;;
71562;SDS011;59391;52.504;13.438;2023-05-14T09:59:07;7.13;;;3.97;;
71562;SDS011;59391;52.504;13.438;2023-05-14T10:01:33;7.63;;;5.00;;
71562;SDS011;59391;52.504;13.438;2023-05-14T10:04:02;6.28;;;3.85;;
71562;SDS011;59391;52.504;13.438;2023-05-14T10:06:32;7.80;;;4.80;;
71562;SDS011;59391;52.504;13.438;2023-05-14T10:09:03;6.10;;;4.07;;
71562;SDS011;59391;52.504;13.438;2023-05-14T10:11:33;9.48;;;4.90;;
71562;SDS011;59391;52.504;13.438;2023-05-14T10:16:53;9.15;;;7.22;;
71562;SDS011;59391;52.504;13.438;2023-05-14T10:19:23;10.68;;;6.18;;
71562;SDS011;59391;52.504;13.438;2023-05-14T10:22:02;7.63;;;4.65;;
71562;SDS011;59391;52.504;13.438;2023-05-14T10:24:30;9.52;;;4.93;;
71562;SDS011;59391;52.504;13.438;2023-05-14T10:26:57;9.93;;;4.50;;
71562;SDS011;59391;52.504;13.438;2023-05-14T10:29:36;6.20;;;4.38;;
71562;SDS011;59391;52.504;13.438;2023-05-14T10:32:08;9.30;;;4.97;;
71562;SDS011;59391;52.504;13.438;2023-05-14T10:34:40;8.67;;;4.57;;
71562;SDS011;59391;52.504;13.438;2023-05-14T10:37:11;7.97;;;4.55;;
71562;SDS011;59391;52.504;13.438;2023-05-14T10:42:33;7.97;;;4.20;;
71562;SDS011;59391;52.504;13.438;2023-05-14T10:45:05;8.20;;;4.80;;
71562;SDS011;59391;52.504;13.438;2023-05-14T10:47:34;6.60;;;4.33;;
71562;SDS011;59391;52.504;13.438;2023-05-14T10:50:02;9.63;;;4.57;;
71562;SDS011;59391;52.504;13.438;2023-05-14T10:52:33;7.40;;;4.60;;
71562;SDS011;59391;52.504;13.438;2023-05-14T10:55:01;7.00;;;4.50;;
71562;SDS011;59391;52.504;13.438;2023-05-14T10:57:31;11.20;;;4.95;;
71562;SDS011;59391;52.504;13.438;2023-05-14T11:00:00;6.97;;;4.73;;
71562;SDS011;59391;52.504;13.438;2023-05-14T11:02:32;8.30;;;4.95;;
71562;SDS011;59391;52.504;13.438;2023-05-14T11:05:07;7.47;;;4.60;;
71562;SDS011;59391;52.504;13.438;2023-05-14T11:07:35;8.23;;;4.75;;
71562;SDS011;59391;52.504;13.438;2023-05-14T11:10:07;6.78;;;4.53;;
71562;SDS011;59391;52.504;13.438;2023-05-14T11:12:41;11.57;;;5.23;;
71562;SDS011;59391;52.504;13.438;2023-05-14T11:15:11;7.68;;;4.97;;
71562;SDS011;59391;52.504;13.438;2023-05-14T11:17:40;9.93;;;4.90;;
71562;SDS011;59391;52.504;13.438;2023-05-14T11:20:08;8.75;;;5.07;;
71562;SDS011;59391;52.504;13.438;2023-05-14T11:22:36;7.75;;;4.97;;
71562;SDS011;59391;52.504;13.438;2023-05-14T11:25:04;6.87;;;4.70;;
71562;SDS011;59391;52.504;13.438;2023-05-14T11:27:32;9.35;;;5.10;;
71562;SDS011;59391;52.504;13.438;2023-05-14T11:30:01;12.77;;;6.03;;
71562;SDS011;59391;52.504;13.438;2023-05-14T11:32:27;8.15;;;5.13;;
71562;SDS011;59391;52.504;13.438;2023-05-14T11:34:56;8.43;;;5.00;;
71562;SDS011;59391;52.504;13.438;2023-05-14T11:37:22;7.87;;;5.47;;
71562;SDS011;59391;52.504;13.438;2023-05-14T11:39:48;11.07;;;5.30;;
71562;SDS011;59391;52.504;13.438;2023-05-14T11:42:16;8.27;;;5.33;;
71562;SDS011;59391;52.504;13.438;2023-05-14T11:44:47;8.90;;;5.68;;
71562;SDS011;59391;52.504;13.438;2023-05-14T11:47:15;12.20;;;5.80;;
71562;SDS011;59391;52.504;13.438;2023-05-14T11:49:43;8.25;;;5.43;;
71562;SDS011;59391;52.504;13.438;2023-05-14T11:52:10;10.90;;;5.22;;
71562;SDS011;59391;52.504;13.438;2023-05-14T11:54:40;8.97;;;5.23;;
71562;SDS011;59391;52.504;13.438;2023-05-14T11:57:08;8.20;;;5.00;;
71562;SDS011;59391;52.504;13.438;2023-05-14T11:59:36;10.60;;;5.47;;
71562;SDS011;59391;52.504;13.438;2023-05-14T12:02:02;9.73;;;5.40;;
71562;SDS011;59391;52.504;13.438;2023-05-14T12:04:29;10.90;;;5.90;;
71562;SDS011;59391;52.504;13.438;2023-05-14T12:06:56;8.00;;;5.40;;
71562;SDS011;59391;52.504;13.438;2023-05-14T12:09:24;6.97;;;5.15;;
71562;SDS011;59391;52.504;13.438;2023-05-14T12:11:50;7.65;;;5.43;;
71562;SDS011;59391;52.504;13.438;2023-05-14T12:14:22;8.30;;;5.57;;
71562;SDS011;59391;52.504;13.438;2023-05-14T12:16:49;9.68;;;5.82;;
71562;SDS011;59391;52.504;13.438;2023-05-14T12:19:16;7.33;;;5.20;;
71562;SDS011;59391;52.504;13.438;2023-05-14T12:21:44;10.02;;;5.38;;
71562;SDS011;59391;52.504;13.438;2023-05-14T12:24:13;7.97;;;5.70;;
71562;SDS011;59391;52.504;13.438;2023-05-14T12:26:45;8.50;;;5.95;;
71562;SDS011;59391;52.504;13.438;2023-05-14T12:29:13;8.82;;;5.93;;
71562;SDS011;59391;52.504;13.438;2023-05-14T12:31:47;10.30;;;5.90;;
71562;SDS011;59391;52.504;13.438;2023-05-14T12:34:14;9.77;;;5.90;;
71562;SDS011;59391;52.504;13.438;2023-05-14T12:36:41;9.98;;;4.93;;
71562;SDS011;59391;52.504;13.438;2023-05-14T12:39:08;7.95;;;5.00;;
71562;SDS011;59391;52.504;13.438;2023-05-14T12:41:35;9.93;;;4.85;;
71562;SDS011;59391;52.504;13.438;2023-05-14T12:44:03;8.27;;;5.00;;
71562;SDS011;59391;52.504;13.438;2023-05-14T12:46:30;10.95;;;6.88;;
71562;SDS011;59391;52.504;13.438;2023-05-14T12:48:56;7.97;;;4.60;;
71562;SDS011;59391;52.504;13.438;2023-05-14T12:51:22;8.40;;;4.63;;
71562;SDS011;59391;52.504;13.438;2023-05-14T12:53:48;7.80;;;5.00;;
71562;SDS011;59391;52.504;13.438;2023-05-14T12:56:15;10.07;;;5.70;;
71562;SDS011;59391;52.504;13.438;2023-05-14T12:58:41;8.27;;;5.03;;
71562;SDS011;59391;52.504;13.438;2023-05-14T13:01:06;7.30;;;4.75;;
71562;SDS011;59391;52.504;13.438;2023-05-14T13:03:32;11.27;;;5.03;;
71562;SDS011;59391;52.504;13.438;2023-05-14T13:05:58;8.07;;;4.72;;
71562;SDS011;59391;52.504;13.438;2023-05-14T13:08:24;7.20;;;4.77;;
71562;SDS011;59391;52.504;13.438;2023-05-14T13:10:50;7.13;;;4.80;;
71562;SDS011;59391;52.504;13.438;2023-05-14T13:13:17;8.20;;;4.80;;
71562;SDS011;59391;52.504;13.438;2023-05-14T13:15:42;9.07;;;5.07;;
71562;SDS011;59391;52.504;13.438;2023-05-14T13:18:10;7.63;;;4.20;;
71562;SDS011;59391;52.504;13.438;2023-05-14T13:20:37;7.47;;;4.80;;
71562;SDS011;59391;52.504;13.438;2023-05-14T13:23:03;11.10;;;4.70;;
71562;SDS011;59391;52.504;13.438;2023-05-14T13:25:28;8.75;;;4.60;;
71562;SDS011;59391;52.504;13.438;2023-05-14T13:27:54;8.80;;;5.40;;
71562;SDS011;59391;52.504;13.438;2023-05-14T13:30:20;7.03;;;4.43;;
71562;SDS011;59391;52.504;13.438;2023-05-14T13:32:45;11.47;;;5.60;;
71562;SDS011;59391;52.504;13.438;2023-05-14T13:35:11;9.55;;;5.13;;
71562;SDS011;59391;52.504;13.438;2023-05-14T13:37:37;7.30;;;4.55;;
71562;SDS011;59391;52.504;13.438;2023-05-14T13:40:03;8.53;;;5.23;;
71562;SDS011;59391;52.504;13.438;2023-05-14T13:42:33;7.72;;;4.80;;
71562;SDS011;59391;52.504;13.438;2023-05-14T13:45:00;9.43;;;5.28;;
71562;SDS011;59391;52.504;13.438;2023-05-14T13:47:25;7.77;;;4.80;;
71562;SDS011;59391;52.504;13.438;2023-05-14T13:49:52;11.90;;;5.18;;
71562;SDS011;59391;52.504;13.438;2023-05-14T13:52:21;8.50;;;4.93;;
71562;SDS011;59391;52.504;13.438;2023-05-14T13:54:46;15.20;;;8.63;;
71562;SDS011;59391;52.504;13.438;2023-05-14T13:57:12;11.87;;;5.27;;
71562;SDS011;59391;52.504;13.438;2023-05-14T13:59:39;8.20;;;5.07;;
71562;SDS011;59391;52.504;13.438;2023-05-14T14:02:05;9.27;;;5.13;;
71562;SDS011;59391;52.504;13.438;2023-05-14T14:04:31;11.20;;;6.33;;
71562;SDS011;59391;52.504;13.438;2023-05-14T14:06:58;6.88;;;4.80;;
71562;SDS011;59391;52.504;13.438;2023-05-14T14:09:26;8.68;;;4.78;;
71562;SDS011;59391;52.504;13.438;2023-05-14T14:11:52;7.77;;;5.07;;
71562;SDS011;59391;52.504;13.438;2023-05-14T14:14:17;10.45;;;5.70;;
71562;SDS011;59391;52.504;13.438;2023-05-14T14:16:46;7.93;;;5.07;;
71562;SDS011;59391;52.504;13.438;2023-05-14T14:19:11;8.13;;;5.10;;
71562;SDS011;59391;52.504;13.438;2023-05-14T14:21:37;9.47;;;5.03;;
71562;SDS011;59391;52.504;13.438;2023-05-14T14:24:06;8.98;;;5.10;;
71562;SDS011;59391;52.504;13.438;2023-05-14T14:26:32;8.07;;;4.80;;
71562;SDS011;59391;52.504;13.438;2023-05-14T14:28:58;8.07;;;4.70;;
71562;SDS011;59391;52.504;13.438;2023-05-14T14:31:23;8.45;;;4.38;;
71562;SDS011;59391;52.504;13.438;2023-05-14T14:33:49;9.10;;;4.67;;